»·PEaware :: N448RA KBFL-KEMT

N448RA :: KBFL-KEMT

FLIGHT INFORMATION

Flight Status: Arrived
Operator: Privately registered:
United States
More flights under this callsign
Pilot: Scott M. (16181)
Aircraft: Unknown
(DA62)
More flights by this aircraft type
Origin: KBFL Meadows
United States
Destination: KEMT El Monte
United States
More flights between these airports :: More routes between these airports
Route:
File this flight plan on PilotEdge
Remarks:
Altitude:
(Current/Filed)
7,500ft
Speed:
(Current/Filed)
150kts
Departed: 01-Nov-18 04:36 PM
Arrived: 01-Nov-18 05:19 PM
Distance/Time
Traveled:
95nm/0:43
Distance/Time
To Go:
Arrived

Flight Plot

Page will automatically refresh every two minutes.


Map Options




Map Legend


Flown Route
Filed Route
Departure Airport
Arrival Airport
Navaid (VOR, NDB)
Fix

Horizontal Profiles

Position Reports

Time Latitude Longitude Heading Altitude Ground
Speed
01-Nov-18 16:19 35.429368 -119.046104 226 499ft 0kts
01-Nov-18 16:20 35.429368 -119.046104 226 499ft 0kts
01-Nov-18 16:21 35.429368 -119.046104 226 499ft 0kts
01-Nov-18 16:22 35.429368 -119.046104 226 499ft 0kts
01-Nov-18 16:23 35.429368 -119.046105 226 499ft 0kts
01-Nov-18 16:28 35.429367 -119.046105 226 499ft 0kts
01-Nov-18 16:29 35.429367 -119.046105 226 499ft 0kts
01-Nov-18 16:30 35.429367 -119.046105 226 499ft 0kts
01-Nov-18 16:31 35.429367 -119.046105 226 499ft 0kts
01-Nov-18 16:32 35.429367 -119.046105 226 499ft 0kts
01-Nov-18 16:33 35.429332 -119.046153 228 499ft 2kts
01-Nov-18 16:34 35.426633 -119.045173 133 499ft 16kts
01-Nov-18 16:35 35.425811 -119.044676 219 499ft 0kts
01-Nov-18 16:37 35.425811 -119.044676 219 499ft 0kts
01-Nov-18 16:38 35.425719 -119.046370 311 499ft 16kts
01-Nov-18 16:39 35.438777 -119.061038 315 853ft 86kts
01-Nov-18 16:40 35.441029 -119.085301 213 1464ft 112kts
01-Nov-18 16:41 35.413925 -119.083502 147 2338ft 118kts
01-Nov-18 16:42 35.387592 -119.059500 146 3202ft 121kts
01-Nov-18 16:43 35.358698 -119.038130 155 4065ft 122kts
01-Nov-18 16:44 35.326845 -119.024437 168 4961ft 122kts
01-Nov-18 16:45 35.293995 -119.013896 169 5858ft 123kts
01-Nov-18 16:46 35.260512 -119.003408 168 6759ft 125kts
01-Nov-18 16:47 35.226274 -118.992726 167 7494ft 141kts
01-Nov-18 16:48 35.182674 -118.979127 167 7494ft 172kts
01-Nov-18 16:49 35.135448 -118.964388 167 7492ft 176kts
01-Nov-18 16:50 35.087997 -118.949602 167 7492ft 177kts
01-Nov-18 16:51 35.040125 -118.934702 167 7492ft 177kts
01-Nov-18 16:52 34.992243 -118.919842 166 7495ft 178kts
01-Nov-18 16:53 34.944290 -118.905030 165 7501ft 178kts
01-Nov-18 16:54 34.896786 -118.890371 163 7505ft 177kts
01-Nov-18 16:55 34.849582 -118.875754 162 7494ft 174kts
01-Nov-18 16:56 34.804014 -118.860524 142 7473ft 168kts
01-Nov-18 16:57 34.770787 -118.824020 132 7496ft 163kts
01-Nov-18 16:58 34.737670 -118.786473 132 7507ft 163kts
01-Nov-18 16:59 34.704388 -118.748785 132 7499ft 164kts
01-Nov-18 17:00 34.670338 -118.710257 132 7478ft 170kts
01-Nov-18 17:01 34.635392 -118.670792 133 7458ft 173kts
01-Nov-18 17:02 34.600064 -118.630944 133 7441ft 174kts
01-Nov-18 17:03 34.564449 -118.590830 134 7425ft 174kts
01-Nov-18 17:04 34.529323 -118.551351 133 7525ft 168kts
01-Nov-18 17:05 34.494652 -118.512373 133 7545ft 171kts
01-Nov-18 17:06 34.459653 -118.473080 133 7304ft 173kts
01-Nov-18 17:07 34.426450 -118.435781 134 6823ft 169kts
01-Nov-18 17:08 34.392768 -118.396820 132 6270ft 167kts
01-Nov-18 17:09 34.359718 -118.357660 132 5671ft 165kts
01-Nov-18 17:10 34.328777 -118.321056 132 5520ft 153kts
01-Nov-18 17:11 34.295509 -118.292168 144 5592ft 137kts
01-Nov-18 17:12 34.266005 -118.261884 136 5020ft 140kts
01-Nov-18 17:13 34.237340 -118.225231 133 4032ft 147kts
01-Nov-18 17:14 34.211801 -118.190269 134 3279ft 116kts
01-Nov-18 17:15 34.191004 -118.163339 137 2685ft 106kts
01-Nov-18 17:16 34.173159 -118.136105 126 2297ft 103kts
01-Nov-18 17:17 34.157674 -118.107180 123 2062ft 102kts
01-Nov-18 17:18 34.142774 -118.078137 126 1773ft 100kts
01-Nov-18 17:19 34.128036 -118.049756 121 1470ft 98kts
01-Nov-18 17:20 34.114416 -118.023944 137 1125ft 88kts
01-Nov-18 17:21 34.092382 -118.031165 208 398ft 90kts
01-Nov-18 17:22 34.085407 -118.034666 116 296ft 0kts
01-Nov-18 17:23 34.085804 -118.033748 32 296ft 1kts

Navigation Log

Ident Type
1. KBFL Airport
2. KEMT Airport